Time;durP1;ratioP1;P1;durP2;ratioP2;P2;SDS_P1;SDS_P2;PMS_P1;PMS_P2;Temp;Humidity;BMP_temperature;BMP_pressure;BME280_temperature;BME280_humidity;BME280_pressure;Samples;Min_cycle;Max_cycle;Signal;HPM_P1;HPM_P2
2021/04/15 00:00:33;;;;;;;5.47;5.03;;;3.80;99.90;;;;;;4995729;28;20263;-77
2021/04/15 00:03:00;;;;;;;6.20;4.70;;;3.70;99.90;;;;;;4994250;28;20196;-77
2021/04/15 00:05:29;;;;;;;5.27;4.80;;;3.70;99.90;;;;;;4995675;28;20562;-77
2021/04/15 00:07:55;;;;;;;5.30;4.80;;;3.70;99.90;;;;;;4995551;28;20203;-77
2021/04/15 00:10:33;;;;;;;5.20;4.80;;;3.70;99.90;;;;;;4995569;28;20179;-77
2021/04/15 00:12:59;;;;;;;5.20;4.10;;;3.60;99.90;;;;;;4992864;28;20543;-77
2021/04/15 00:15:26;;;;;;;5.87;4.83;;;3.50;99.90;;;;;;4995683;28;20189;-77
2021/04/15 00:17:52;;;;;;;5.77;5.07;;;3.50;99.90;;;;;;4995254;28;20204;-77
2021/04/15 00:20:19;;;;;;;5.23;4.73;;;3.40;99.90;;;;;;4995405;28;20252;-77
2021/04/15 00:22:44;;;;;;;4.83;4.50;;;3.30;99.90;;;;;;4987464;28;20222;-77
2021/04/15 00:25:11;;;;;;;5.67;4.77;;;3.30;99.90;;;;;;4993588;28;20203;-77
2021/04/15 00:27:37;;;;;;;5.20;4.70;;;3.20;99.90;;;;;;4994942;28;20687;-77
2021/04/15 00:30:05;;;;;;;4.60;4.20;;;3.20;99.90;;;;;;4993764;28;20225;-77
2021/04/15 00:32:31;;;;;;;5.07;4.57;;;3.10;99.90;;;;;;4994304;28;20258;-77
2021/04/15 00:34:57;;;;;;;5.40;4.90;;;3.00;99.90;;;;;;4995271;28;20220;-77
2021/04/15 00:37:22;;;;;;;5.10;4.70;;;3.00;99.90;;;;;;4994996;28;20674;-77
2021/04/15 00:39:48;;;;;;;5.27;4.80;;;2.90;99.90;;;;;;4995182;28;20633;-77
2021/04/15 00:42:14;;;;;;;5.40;4.90;;;2.80;99.90;;;;;;4995319;28;20201;-77
2021/04/15 00:44:40;;;;;;;5.30;4.90;;;2.80;99.90;;;;;;4993623;28;20183;-77
2021/04/15 00:47:12;;;;;;;5.27;4.87;;;2.70;99.90;;;;;;4995168;28;20287;-77
2021/04/15 00:49:40;;;;;;;5.10;4.70;;;2.80;99.90;;;;;;4995019;28;20533;-78
2021/04/15 00:52:10;;;;;;;5.57;5.10;;;2.80;99.90;;;;;;4993467;28;20174;-77
2021/04/15 00:55:01;;;;;;;7.90;6.03;;;2.80;99.90;;;;;;4994854;28;20672;-77
2021/04/15 00:57:35;;;;;;;6.70;5.90;;;2.70;99.90;;;;;;4994210;28;20280;-77
2021/04/15 01:00:00;;;;;;;6.13;5.33;;;2.70;99.90;;;;;;4993692;28;20172;-77
2021/04/15 01:02:30;;;;;;;6.13;5.37;;;2.70;99.90;;;;;;4994757;28;20282;-78
2021/04/15 01:05:04;;;;;;;5.43;4.93;;;2.80;99.90;;;;;;4994768;28;20176;-78
2021/04/15 01:07:30;;;;;;;5.53;5.03;;;2.70;99.90;;;;;;4992840;28;20197;-77
2021/04/15 01:09:56;;;;;;;5.57;5.07;;;2.80;99.90;;;;;;4994485;28;20171;-77
2021/04/15 01:12:47;;;;;;;5.53;5.03;;;2.80;99.90;;;;;;4994485;28;20223;-77
2021/04/15 01:15:50;;;;;;;4.50;4.10;;;2.80;99.90;;;;;;4994391;28;20173;-77
2021/04/15 01:18:34;;;;;;;5.13;4.73;;;2.70;99.90;;;;;;4994214;28;20659;-77
2021/04/15 01:21:17;;;;;;;5.00;4.50;;;2.70;99.90;;;;;;4994233;28;20207;-78
2021/04/15 01:23:57;;;;;;;5.23;4.73;;;2.60;99.90;;;;;;4985588;28;20272;-76
2021/04/15 01:26:57;;;;;;;4.97;4.57;;;2.50;99.90;;;;;;4994099;28;20239;-77
2021/04/15 01:29:44;;;;;;;5.90;4.80;;;2.50;99.90;;;;;;4993024;28;20170;-77
2021/04/15 01:32:15;;;;;;;5.27;4.77;;;2.50;99.90;;;;;;4994126;28;20195;-77
2021/04/15 01:34:55;;;;;;;5.03;4.63;;;2.60;99.90;;;;;;4994081;28;20180;-77
2021/04/15 01:37:37;;;;;;;6.00;5.27;;;2.60;99.90;;;;;;4990055;28;20203;-77
2021/04/15 01:40:13;;;;;;;5.30;4.90;;;2.50;99.90;;;;;;4976441;28;20174;-77
2021/04/15 01:42:56;;;;;;;5.77;5.20;;;2.50;99.90;;;;;;4978667;28;20190;-77
2021/04/15 01:45:22;;;;;;;5.07;4.67;;;2.60;99.90;;;;;;4991663;28;20226;-77
2021/04/15 01:47:53;;;;;;;6.10;5.50;;;2.70;99.90;;;;;;4992875;28;20278;-77
2021/04/15 01:50:23;;;;;;;5.17;4.77;;;2.70;99.90;;;;;;4993729;28;20173;-78
2021/04/15 01:52:52;;;;;;;5.83;5.13;;;2.70;99.90;;;;;;4993528;28;20584;-77
2021/04/15 01:55:39;;;;;;;5.23;4.80;;;2.70;99.90;;;;;;4992522;28;20253;-77
2021/04/15 01:58:05;;;;;;;6.17;5.30;;;2.70;99.90;;;;;;4992032;28;20172;-77
2021/04/15 02:00:33;;;;;;;5.80;5.20;;;2.80;99.90;;;;;;4991937;28;20234;-77
2021/04/15 02:03:21;;;;;;;5.50;5.00;;;2.80;99.90;;;;;;4980470;28;20192;-77
2021/04/15 02:05:54;;;;;;;6.30;5.70;;;2.80;99.90;;;;;;4980490;28;20180;-77
2021/04/15 02:08:24;;;;;;;5.37;4.97;;;2.70;99.90;;;;;;4993153;28;20205;-77
2021/04/15 02:10:56;;;;;;;7.90;5.37;;;2.80;99.90;;;;;;4991877;28;20222;-77
2021/04/15 02:13:24;;;;;;;6.07;5.23;;;2.80;99.90;;;;;;4993134;28;20182;-78
2021/04/15 02:15:57;;;;;;;6.53;5.03;;;2.90;99.90;;;;;;4992888;28;20172;-77
2021/04/15 02:18:38;;;;;;;6.30;5.20;;;2.90;99.90;;;;;;4990116;28;20182;-77
2021/04/15 02:21:19;;;;;;;5.90;4.83;;;3.00;99.90;;;;;;4993021;28;20173;-77
2021/04/15 02:23:51;;;;;;;5.00;4.50;;;3.10;99.90;;;;;;4984295;28;20216;-77
2021/04/15 02:26:26;;;;;;;5.43;4.63;;;3.00;99.90;;;;;;4991242;28;20562;-77
2021/04/15 02:29:04;;;;;;;5.43;4.80;;;3.00;99.90;;;;;;4991453;28;20170;-77
2021/04/15 02:31:49;;;;;;;8.37;5.17;;;3.10;99.90;;;;;;4992649;28;20167;-78
2021/04/15 02:34:31;;;;;;;4.57;4.20;;;3.10;99.90;;;;;;4991164;28;20275;-77
2021/04/15 02:37:03;;;;;;;5.87;5.30;;;3.10;99.90;;;;;;4992163;28;20281;-77
2021/04/15 02:39:39;;;;;;;6.87;5.77;;;3.10;99.90;;;;;;4992488;28;20186;-77
2021/04/15 02:42:09;;;;;;;7.30;4.90;;;3.10;99.90;;;;;;4990931;28;20266;-77
2021/04/15 02:44:46;;;;;;;5.30;4.80;;;3.10;99.90;;;;;;4992603;28;20262;-77
2021/04/15 02:47:32;;;;;;;6.67;5.87;;;3.20;99.90;;;;;;4992238;28;20669;-77
2021/04/15 02:50:00;;;;;;;7.73;5.20;;;3.10;99.90;;;;;;4990907;28;20199;-77
2021/04/15 02:52:31;;;;;;;6.67;5.57;;;3.10;99.90;;;;;;4992048;28;20650;-77
2021/04/15 02:55:06;;;;;;;6.17;5.57;;;3.20;99.90;;;;;;4991557;28;20624;-77
2021/04/15 02:57:36;;;;;;;5.83;5.23;;;3.10;99.90;;;;;;4989860;28;20290;-77
2021/04/15 03:00:18;;;;;;;5.50;5.00;;;3.10;99.90;;;;;;4992400;28;20212;-77
2021/04/15 03:02:58;;;;;;;4.87;4.47;;;3.10;99.90;;;;;;4990559;28;20262;-77
2021/04/15 03:05:25;;;;;;;5.17;4.60;;;3.10;99.90;;;;;;4993246;28;20188;-78
2021/04/15 03:07:55;;;;;;;5.43;4.70;;;3.10;99.90;;;;;;4991180;28;20196;-77
2021/04/15 03:10:27;;;;;;;4.87;4.47;;;3.30;99.90;;;;;;4992115;28;20193;-78
2021/04/15 03:13:05;;;;;;;5.10;4.63;;;3.00;99.90;;;;;;4992051;28;20185;-78
2021/04/15 03:15:35;;;;;;;6.00;4.17;;;3.10;99.90;;;;;;4990781;28;20194;-77
2021/04/15 03:18:07;;;;;;;4.07;3.73;;;3.00;99.90;;;;;;4992281;28;20222;-78
2021/04/15 03:21:19;;;;;;;4.63;4.23;;;3.00;99.90;;;;;;4991118;28;20776;-77
2021/04/15 03:23:55;;;;;;;4.73;3.90;;;2.90;99.90;;;;;;4959416;28;20235;-77
2021/04/15 03:26:27;;;;;;;3.83;3.53;;;2.80;99.90;;;;;;4990424;28;20215;-77
2021/04/15 03:29:33;;;;;;;4.20;3.80;;;2.80;99.90;;;;;;4990624;28;20175;-78
2021/04/15 03:32:21;;;;;;;4.63;4.10;;;2.80;99.90;;;;;;4991372;28;20191;-78
2021/04/15 03:35:04;;;;;;;4.17;3.87;;;2.80;99.90;;;;;;4991865;28;20192;-78
2021/04/15 03:38:04;;;;;;;6.20;4.07;;;2.80;99.90;;;;;;4991705;28;20279;-78
2021/04/15 03:40:33;;;;;;;5.47;4.00;;;2.90;99.90;;;;;;4991851;28;20187;-77
2021/04/15 03:43:03;;;;;;;4.97;4.07;;;2.90;99.90;;;;;;4991785;28;20195;-78
2021/04/15 03:46:04;;;;;;;5.57;3.97;;;2.90;99.90;;;;;;4991581;28;20180;-78
2021/04/15 03:48:40;;;;;;;4.10;3.80;;;2.80;99.90;;;;;;4991712;28;20653;-77
2021/04/15 03:51:30;;;;;;;5.10;3.93;;;2.70;99.90;;;;;;4989788;28;20187;-78
2021/04/15 03:54:03;;;;;;;5.10;4.00;;;2.70;99.90;;;;;;4991625;28;20214;-77
2021/04/15 03:56:31;;;;;;;4.07;3.60;;;2.80;99.90;;;;;;4991915;28;20207;-77
2021/04/15 03:59:22;;;;;;;6.60;4.17;;;2.80;99.90;;;;;;4991680;28;20176;-77
2021/04/15 04:01:54;;;;;;;4.30;3.90;;;2.80;99.90;;;;;;4971545;28;20185;-77
2021/04/15 04:04:44;;;;;;;3.83;3.50;;;2.80;99.90;;;;;;4981595;28;20280;-77
2021/04/15 04:07:17;;;;;;;4.10;3.57;;;2.80;99.90;;;;;;4980758;28;20244;-78
2021/04/15 04:09:49;;;;;;;4.87;3.80;;;2.70;99.90;;;;;;4993563;28;20211;-78
2021/04/15 04:12:25;;;;;;;7.47;3.97;;;2.70;99.90;;;;;;4993570;28;20181;-78
2021/04/15 04:15:15;;;;;;;4.70;4.30;;;2.80;99.90;;;;;;4995336;28;20305;-77
2021/04/15 04:18:05;;;;;;;4.20;3.80;;;2.80;99.90;;;;;;4994431;28;20664;-78
2021/04/15 04:20:34;;;;;;;3.57;3.27;;;2.80;99.90;;;;;;4994668;28;20199;-78
2021/04/15 04:23:11;;;;;;;4.07;3.77;;;2.90;99.90;;;;;;4986280;28;20211;-78
2021/04/15 04:26:15;;;;;;;4.03;3.63;;;2.90;99.90;;;;;;4991283;28;20226;-77
2021/04/15 04:29:01;;;;;;;3.60;3.30;;;2.90;99.90;;;;;;4957441;28;20198;-78
2021/04/15 04:31:32;;;;;;;4.63;4.00;;;2.90;99.90;;;;;;4994820;28;20583;-78
2021/04/15 04:33:58;;;;;;;4.30;3.90;;;2.90;99.90;;;;;;4993617;28;20176;-78
2021/04/15 04:36:27;;;;;;;6.10;3.90;;;2.90;99.90;;;;;;4985247;28;20671;-78
2021/04/15 04:38:55;;;;;;;4.10;3.60;;;2.80;99.90;;;;;;4989129;28;20184;-78
2021/04/15 04:41:34;;;;;;;4.83;3.80;;;2.80;99.90;;;;;;4983501;28;20193;-77
2021/04/15 04:44:06;;;;;;;3.93;3.63;;;2.80;99.90;;;;;;4993256;28;20278;-78
2021/04/15 04:46:40;;;;;;;4.20;3.60;;;2.80;99.90;;;;;;4987074;28;20199;-77
2021/04/15 04:49:13;;;;;;;4.10;3.37;;;2.80;99.90;;;;;;4981903;28;20638;-78
2021/04/15 04:51:53;;;;;;;4.00;3.20;;;2.70;99.90;;;;;;4974796;28;20174;-77
2021/04/15 04:54:21;;;;;;;3.80;3.50;;;2.80;99.90;;;;;;4976497;28;20267;-77
2021/04/15 04:57:17;;;;;;;3.97;3.57;;;2.80;99.90;;;;;;4975005;28;20217;-78
2021/04/15 04:59:59;;;;;;;4.80;3.80;;;2.80;99.90;;;;;;4974684;28;20638;-78
2021/04/15 05:02:25;;;;;;;3.93;3.60;;;2.80;99.90;;;;;;4978184;28;20250;-77
2021/04/15 05:05:19;;;;;;;4.00;3.40;;;2.70;99.90;;;;;;4975120;28;20181;-76
2021/04/15 05:07:47;;;;;;;5.00;3.60;;;2.80;99.90;;;;;;4976835;28;20198;-78
2021/04/15 05:10:21;;;;;;;3.83;3.30;;;2.80;99.90;;;;;;4983443;28;20184;-77
2021/04/15 05:12:50;;;;;;;3.87;3.57;;;2.90;99.90;;;;;;4995445;28;20273;-77
2021/04/15 05:15:17;;;;;;;5.57;3.60;;;2.80;99.90;;;;;;4993544;28;20190;-77
2021/04/15 05:17:44;;;;;;;4.13;3.30;;;2.80;99.90;;;;;;4988347;28;20204;-77
2021/04/15 05:20:20;;;;;;;3.53;3.23;;;2.80;99.90;;;;;;4989042;28;20178;-76
2021/04/15 05:23:02;;;;;;;4.03;3.43;;;2.80;99.90;;;;;;4969632;28;20214;-78
2021/04/15 05:25:40;;;;;;;4.00;3.30;;;2.70;99.90;;;;;;4981597;28;20197;-77
2021/04/15 05:28:11;;;;;;;5.47;3.50;;;2.80;99.90;;;;;;4994511;28;20250;-78
2021/04/15 05:30:46;;;;;;;3.73;3.33;;;2.70;99.90;;;;;;4994772;28;20183;-77
2021/04/15 05:33:17;;;;;;;3.27;2.97;;;2.70;99.90;;;;;;4985206;28;20213;-77
2021/04/15 05:36:01;;;;;;;4.27;3.87;;;2.70;99.90;;;;;;4977147;28;20631;-77
2021/04/15 05:38:30;;;;;;;3.77;3.20;;;2.80;99.90;;;;;;4975277;28;20180;-78
2021/04/15 05:40:56;;;;;;;3.57;3.27;;;2.90;99.90;;;;;;4977991;28;20177;-77
2021/04/15 05:43:34;;;;;;;4.03;3.40;;;2.80;99.90;;;;;;4976858;28;20222;-77
2021/04/15 05:46:11;;;;;;;4.27;3.70;;;2.90;99.90;;;;;;4980560;28;20219;-77
2021/04/15 05:48:38;;;;;;;8.03;4.07;;;2.90;99.90;;;;;;4996542;28;20177;-77
2021/04/15 05:51:11;;;;;;;4.13;3.60;;;3.00;99.90;;;;;;4994683;28;20169;-77
2021/04/15 05:53:47;;;;;;;5.03;3.87;;;3.00;99.90;;;;;;4995157;28;20665;-78
2021/04/15 05:56:19;;;;;;;5.03;3.90;;;3.00;99.90;;;;;;4977009;28;20212;-77
2021/04/15 05:59:03;;;;;;;3.93;3.57;;;3.00;99.90;;;;;;4976521;28;20179;-77
2021/04/15 06:01:55;;;;;;;5.47;3.70;;;3.10;99.90;;;;;;4971770;28;20197;-77
2021/04/15 06:04:27;;;;;;;5.00;3.70;;;3.10;99.90;;;;;;4945244;28;20221;-77
2021/04/15 06:06:53;;;;;;;4.37;3.70;;;3.20;99.90;;;;;;4978878;28;20194;-78
2021/04/15 06:09:20;;;;;;;3.77;3.47;;;3.10;99.90;;;;;;4976894;28;20226;-77
2021/04/15 06:12:10;;;;;;;4.73;3.83;;;3.20;99.90;;;;;;4987774;28;20222;-77
2021/04/15 06:14:52;;;;;;;4.97;3.37;;;3.30;99.90;;;;;;4990730;28;20526;-77
2021/04/15 06:17:36;;;;;;;4.27;3.53;;;3.30;99.90;;;;;;4977164;28;20210;-77
2021/04/15 06:20:26;;;;;;;8.50;3.30;;;3.40;99.90;;;;;;4993084;28;20656;-78
2021/04/15 06:23:02;;;;;;;3.87;3.37;;;3.50;99.90;;;;;;4976850;28;20211;-77
2021/04/15 06:25:33;;;;;;;8.53;3.33;;;3.40;99.90;;;;;;4988091;28;20202;-77
2021/04/15 06:28:07;;;;;;;5.33;3.37;;;3.40;99.90;;;;;;4976047;28;20216;-78
2021/04/15 06:31:02;;;;;;;3.70;3.40;;;3.50;99.90;;;;;;4992875;28;20293;-77
2021/04/15 06:33:29;;;;;;;5.13;3.30;;;3.50;99.90;;;;;;4975508;28;20201;-77
2021/04/15 06:35:56;;;;;;;3.80;3.40;;;3.50;99.90;;;;;;4972964;28;20181;-76
2021/04/15 06:38:36;;;;;;;3.43;3.13;;;3.50;99.90;;;;;;4973223;28;20232;-77
2021/04/15 06:41:20;;;;;;;4.23;3.20;;;3.50;99.90;;;;;;4994114;28;20710;-77
2021/04/15 06:44:01;;;;;;;4.07;3.33;;;3.50;99.90;;;;;;4994361;28;20193;-77
2021/04/15 06:46:48;;;;;;;4.63;3.90;;;3.50;99.90;;;;;;4993720;28;20196;-78
2021/04/15 06:49:25;;;;;;;6.17;3.33;;;3.60;99.90;;;;;;4990123;28;20180;-77
2021/04/15 06:52:00;;;;;;;3.73;3.40;;;3.60;99.90;;;;;;4975987;28;20177;-77
2021/04/15 06:54:44;;;;;;;6.87;3.53;;;3.70;99.90;;;;;;4977445;28;20172;-77
2021/04/15 06:57:19;;;;;;;3.80;3.50;;;3.70;99.90;;;;;;4993703;28;20251;-77
2021/04/15 06:59:54;;;;;;;4.30;2.93;;;3.70;99.90;;;;;;4991762;28;20653;-77
2021/04/15 07:02:52;;;;;;;6.07;3.50;;;3.80;99.90;;;;;;4965536;28;20174;-77
2021/04/15 07:05:28;;;;;;;3.63;3.20;;;3.90;99.90;;;;;;4983489;28;20177;-77
2021/04/15 07:08:07;;;;;;;4.60;3.40;;;4.00;99.90;;;;;;4992469;28;20198;-77
2021/04/15 07:10:54;;;;;;;4.20;3.23;;;4.20;99.90;;;;;;4993417;28;20165;-77
2021/04/15 07:13:33;;;;;;;4.77;2.80;;;4.20;99.90;;;;;;4993352;28;20259;-77
2021/04/15 07:16:13;;;;;;;4.33;3.17;;;4.20;99.90;;;;;;4993168;28;20180;-77
2021/04/15 07:18:49;;;;;;;6.00;2.93;;;4.30;99.90;;;;;;4993285;28;20173;-77
2021/04/15 07:21:17;;;;;;;3.40;3.10;;;4.20;99.90;;;;;;4967787;28;20198;-77
2021/04/15 07:24:27;;;;;;;4.33;3.40;;;4.30;99.90;;;;;;4984720;28;20194;-77
2021/04/15 07:26:59;;;;;;;4.40;3.10;;;4.40;99.90;;;;;;4996465;28;20214;-77
2021/04/15 07:29:35;;;;;;;4.83;3.50;;;4.40;99.90;;;;;;5006591;28;20198;-79
2021/04/15 07:32:03;;;;;;;3.80;3.00;;;4.50;99.90;;;;;;5004513;28;20605;-79
2021/04/15 07:34:35;;;;;;;2.73;2.53;;;4.70;99.90;;;;;;5008273;28;20174;-79
2021/04/15 07:37:17;;;;;;;4.63;3.70;;;4.80;99.90;;;;;;4993354;28;20748;-79
2021/04/15 07:40:09;;;;;;;4.47;3.17;;;4.80;99.90;;;;;;5007416;28;20652;-79
2021/04/15 07:42:49;;;;;;;5.97;2.97;;;4.90;99.90;;;;;;5011934;28;20617;-79
2021/04/15 07:45:40;;;;;;;4.57;3.43;;;5.00;99.90;;;;;;5011112;28;20175;-79
2021/04/15 07:48:24;;;;;;;4.50;3.33;;;5.20;99.90;;;;;;5010508;28;20637;-78
2021/04/15 07:51:13;;;;;;;3.77;3.20;;;5.40;99.90;;;;;;5010430;28;20200;-79
2021/04/15 07:53:57;;;;;;;3.50;2.90;;;5.30;99.90;;;;;;5010178;28;20192;-79
2021/04/15 07:57:11;;;;;;;5.73;3.30;;;5.50;99.90;;;;;;5010694;28;20672;-79
2021/04/15 07:59:58;;;;;;;4.83;2.77;;;5.50;99.90;;;;;;5010204;28;20655;-79
2021/04/15 08:02:53;;;;;;;5.60;2.83;;;5.40;99.90;;;;;;5010812;28;20178;-79
2021/04/15 08:05:28;;;;;;;5.13;3.30;;;5.30;99.90;;;;;;5011139;28;20175;-79
2021/04/15 08:08:24;;;;;;;4.83;3.47;;;5.20;99.90;;;;;;5010452;28;20239;-79
2021/04/15 08:11:19;;;;;;;4.83;3.40;;;5.20;99.90;;;;;;5010488;28;20651;-78
2021/04/15 08:14:04;;;;;;;3.60;3.00;;;5.30;99.90;;;;;;4984905;28;20663;-79
2021/04/15 08:17:10;;;;;;;5.23;3.60;;;5.40;99.90;;;;;;5006937;28;20204;-79
2021/04/15 08:19:45;;;;;;;4.77;3.30;;;5.50;99.90;;;;;;4969022;29;20198;-79
2021/04/15 08:22:58;;;;;;;3.73;3.33;;;5.60;99.90;;;;;;5002154;28;20219;-79
2021/04/15 08:25:46;;;;;;;4.87;3.27;;;5.50;99.90;;;;;;4968979;28;20199;-79
2021/04/15 08:28:20;;;;;;;4.33;3.30;;;5.70;99.90;;;;;;5011310;28;20190;-79
2021/04/15 08:31:11;;;;;;;6.03;3.77;;;5.80;99.90;;;;;;5011673;28;20214;-78
2021/04/15 08:33:56;;;;;;;4.33;2.67;;;5.80;99.90;;;;;;5011542;28;20180;-79
2021/04/15 08:36:31;;;;;;;5.13;3.30;;;5.80;99.90;;;;;;5010718;28;20262;-79
2021/04/15 08:39:34;;;;;;;7.27;2.97;;;5.90;99.90;;;;;;5009032;28;20182;-79
2021/04/15 08:42:18;;;;;;;4.03;3.37;;;6.00;99.90;;;;;;5009849;28;20182;-79
2021/04/15 08:45:22;;;;;;;3.43;3.13;;;6.10;99.90;;;;;;5008704;28;20190;-78
2021/04/15 08:48:00;;;;;;;4.03;3.27;;;6.10;99.90;;;;;;5006898;28;20278;-79
2021/04/15 08:50:41;;;;;;;4.40;3.50;;;6.10;99.90;;;;;;5008108;28;20185;-80
2021/04/15 08:53:28;;;;;;;4.07;3.50;;;6.20;99.90;;;;;;5007733;28;20175;-79
2021/04/15 08:56:00;;;;;;;3.57;3.27;;;6.20;99.90;;;;;;5009095;28;20178;-78
2021/04/15 08:58:47;;;;;;;4.40;3.70;;;6.30;99.90;;;;;;5009284;28;20190;-79
2021/04/15 09:01:24;;;;;;;3.87;3.47;;;6.50;99.90;;;;;;5009285;28;20588;-78
2021/04/15 09:03:50;;;;;;;4.43;3.57;;;6.60;99.90;;;;;;5008860;28;20207;-79
2021/04/15 09:06:32;;;;;;;3.60;3.30;;;6.80;99.90;;;;;;5008882;28;20222;-79
2021/04/15 09:09:20;;;;;;;5.53;3.70;;;6.90;99.90;;;;;;5009082;28;20175;-79
2021/04/15 09:11:51;;;;;;;4.00;3.57;;;7.00;99.90;;;;;;5008743;28;20264;-78
2021/04/15 09:14:30;;;;;;;4.73;3.60;;;7.00;99.90;;;;;;5008698;28;20234;-79
2021/04/15 09:17:02;;;;;;;3.60;3.20;;;7.00;99.90;;;;;;5008915;28;20230;-78
2021/04/15 09:19:52;;;;;;;3.27;2.93;;;6.80;99.90;;;;;;5008304;28;20175;-79
2021/04/15 09:22:39;;;;;;;4.77;2.90;;;7.00;99.90;;;;;;5002958;28;20211;-78
2021/04/15 09:25:40;;;;;;;3.10;2.80;;;7.10;99.90;;;;;;5006842;28;20172;-78
2021/04/15 09:28:13;;;;;;;3.70;3.10;;;7.10;99.90;;;;;;5007319;28;20283;-79
2021/04/15 09:31:15;;;;;;;5.87;3.70;;;6.90;99.90;;;;;;5008148;28;20182;-79
2021/04/15 09:33:58;;;;;;;4.33;3.63;;;6.80;99.90;;;;;;5008871;28;20171;-78
2021/04/15 09:36:43;;;;;;;3.23;2.60;;;6.80;99.90;;;;;;5007325;28;20203;-78
2021/04/15 09:39:19;;;;;;;4.33;3.33;;;6.90;99.90;;;;;;5006820;28;20176;-78
2021/04/15 09:42:16;;;;;;;4.17;3.77;;;7.00;99.90;;;;;;5006317;28;20186;-78
2021/04/15 09:45:06;;;;;;;3.17;2.97;;;6.80;99.90;;;;;;5007463;28;20183;-80
2021/04/15 09:47:53;;;;;;;3.53;3.23;;;6.60;99.90;;;;;;5007357;28;20279;-78
2021/04/15 09:50:29;;;;;;;4.00;3.70;;;6.60;99.90;;;;;;5008067;28;20671;-79
2021/04/15 09:53:00;;;;;;;4.77;3.17;;;6.70;99.90;;;;;;5008898;28;20210;-79
2021/04/15 09:55:34;;;;;;;4.00;3.60;;;6.70;99.90;;;;;;5008736;28;20184;-80
2021/04/15 09:58:16;;;;;;;4.93;2.80;;;6.80;99.90;;;;;;5007044;28;20202;-78
2021/04/15 10:00:49;;;;;;;3.57;3.27;;;6.70;99.90;;;;;;5007231;28;20213;-80
2021/04/15 10:03:26;;;;;;;4.40;3.67;;;6.60;99.90;;;;;;5008177;28;20569;-79
2021/04/15 10:06:03;;;;;;;6.03;3.50;;;6.60;99.90;;;;;;5008768;28;20194;-79
2021/04/15 10:08:41;;;;;;;5.37;3.17;;;6.60;99.90;;;;;;5006898;28;20171;-79
2021/04/15 10:11:25;;;;;;;4.77;3.43;;;6.60;99.90;;;;;;5004148;28;20179;-78
2021/04/15 10:14:29;;;;;;;4.03;3.50;;;6.60;99.90;;;;;;5007765;28;20184;-78
2021/04/15 10:17:04;;;;;;;3.63;3.33;;;6.70;99.90;;;;;;5006692;28;20190;-78
2021/04/15 10:19:43;;;;;;;3.50;3.20;;;6.80;99.90;;;;;;5004931;28;20258;-78
2021/04/15 10:22:32;;;;;;;3.60;3.30;;;6.80;99.90;;;;;;5004489;28;20547;-78
2021/04/15 10:25:14;;;;;;;3.40;3.10;;;7.00;99.90;;;;;;5003030;28;20172;-78
2021/04/15 10:27:58;;;;;;;3.60;3.10;;;7.20;99.90;;;;;;5007289;28;20207;-79
2021/04/15 10:30:30;;;;;;;3.03;2.80;;;7.30;99.90;;;;;;5005779;28;20172;-78
2021/04/15 10:33:33;;;;;;;4.40;3.23;;;7.40;99.90;;;;;;4998767;28;20263;-79
2021/04/15 10:36:40;;;;;;;3.33;2.93;;;7.40;99.90;;;;;;4985952;28;20227;-79
2021/04/15 10:39:17;;;;;;;4.53;3.17;;;7.30;99.90;;;;;;4998421;28;20229;-78
2021/04/15 10:42:05;;;;;;;5.47;3.17;;;7.10;99.90;;;;;;5004440;28;20614;-78
2021/04/15 10:44:43;;;;;;;3.33;3.03;;;7.20;99.90;;;;;;4994992;28;20198;-79
2021/04/15 10:47:28;;;;;;;3.80;2.83;;;7.30;99.90;;;;;;5004890;28;20226;-79
2021/04/15 10:50:02;;;;;;;4.33;3.03;;;7.20;99.90;;;;;;5003911;28;20178;-80
2021/04/15 10:52:56;;;;;;;4.10;3.70;;;7.20;99.90;;;;;;5004589;28;20176;-79
2021/04/15 10:55:24;;;;;;;4.80;3.03;;;7.20;99.90;;;;;;5006301;28;20168;-79
2021/04/15 10:57:51;;;;;;;4.73;3.00;;;7.40;99.90;;;;;;5005224;28;20199;-79
2021/04/15 11:00:33;;;;;;;3.00;2.70;;;7.60;99.90;;;;;;5005598;28;20184;-79
2021/04/15 11:03:17;;;;;;;3.80;3.13;;;7.60;99.40;;;;;;5005312;28;20193;-78
2021/04/15 11:05:48;;;;;;;2.93;2.63;;;7.80;99.10;;;;;;5010982;28;20190;-80
2021/04/15 11:08:25;;;;;;;2.90;2.60;;;7.60;98.80;;;;;;5010139;28;20184;-79
2021/04/15 11:11:09;;;;;;;3.63;2.47;;;7.70;98.30;;;;;;5011004;28;20271;-79
2021/04/15 11:13:34;;;;;;;2.63;2.30;;;7.70;98.50;;;;;;5010886;28;20234;-79
2021/04/15 11:16:03;;;;;;;2.93;2.57;;;7.70;98.00;;;;;;4996082;28;20209;-80
2021/04/15 11:18:33;;;;;;;2.73;2.50;;;7.90;99.20;;;;;;4995587;28;20180;-79
2021/04/15 11:21:13;;;;;;;7.57;2.77;;;8.00;97.30;;;;;;5003975;28;20207;-78
2021/04/15 11:23:39;;;;;;;3.70;3.40;;;8.10;99.30;;;;;;4982341;28;20673;-78
2021/04/15 11:26:12;;;;;;;3.80;2.93;;;7.90;99.90;;;;;;4994669;28;20227;-78
2021/04/15 11:28:38;;;;;;;4.80;3.00;;;7.50;99.90;;;;;;5001026;28;20167;-79
2021/04/15 11:31:09;;;;;;;3.37;2.70;;;7.50;99.90;;;;;;5000857;28;20645;-78
2021/04/15 11:33:44;;;;;;;3.40;3.10;;;7.20;99.90;;;;;;5004226;28;20184;-80
2021/04/15 11:36:27;;;;;;;6.07;3.20;;;7.10;99.90;;;;;;5004500;28;20249;-80
2021/04/15 11:39:07;;;;;;;3.80;3.33;;;7.00;99.90;;;;;;5006006;28;20244;-80
2021/04/15 11:41:41;;;;;;;3.13;2.83;;;6.90;99.90;;;;;;5006919;28;20177;-80
2021/04/15 11:44:08;;;;;;;6.87;2.87;;;6.90;99.90;;;;;;5008946;28;20203;-80
2021/04/15 11:46:56;;;;;;;3.77;3.37;;;6.70;99.90;;;;;;4992198;28;20236;-80
2021/04/15 11:49:29;;;;;;;6.07;3.60;;;6.70;99.90;;;;;;4993724;28;20175;-79
2021/04/15 11:52:19;;;;;;;3.27;3.03;;;6.70;99.90;;;;;;4990038;28;20562;-80
2021/04/15 11:55:25;;;;;;;5.60;3.50;;;6.80;99.90;;;;;;4990435;28;20176;-80
2021/04/15 11:57:57;;;;;;;4.47;3.07;;;6.90;99.90;;;;;;4990706;28;20215;-79
2021/04/15 12:00:34;;;;;;;3.70;3.30;;;6.80;99.90;;;;;;5005159;28;20182;-80
2021/04/15 12:02:59;;;;;;;3.60;3.20;;;7.00;99.90;;;;;;4985717;28;20204;-79
2021/04/15 12:05:31;;;;;;;3.50;3.20;;;7.20;99.90;;;;;;4989003;28;20627;-80
2021/04/15 12:08:03;;;;;;;7.60;3.27;;;7.40;99.90;;;;;;4990879;28;20530;-80
2021/04/15 12:10:36;;;;;;;3.20;2.90;;;7.60;99.90;;;;;;4988543;28;20256;-80
2021/04/15 12:13:23;;;;;;;3.00;2.80;;;7.50;99.90;;;;;;4989851;28;20173;-79
2021/04/15 12:15:56;;;;;;;5.83;3.13;;;7.40;99.90;;;;;;4983162;28;20291;-79
2021/04/15 12:18:51;;;;;;;4.50;3.07;;;7.60;99.90;;;;;;4970380;28;20175;-78
2021/04/15 12:21:26;;;;;;;3.87;3.50;;;7.70;99.90;;;;;;4985041;28;20180;-79
2021/04/15 12:23:52;;;;;;;5.80;2.90;;;7.60;99.90;;;;;;4985917;28;20735;-79
2021/04/15 12:26:46;;;;;;;3.50;2.83;;;7.70;99.90;;;;;;4976798;28;20309;-79
2021/04/15 12:29:15;;;;;;;5.37;3.00;;;7.80;98.80;;;;;;4979149;28;20190;-78
2021/04/15 12:31:52;;;;;;;3.27;2.63;;;7.90;97.30;;;;;;4989528;28;20253;-79
2021/04/15 12:34:39;;;;;;;3.03;2.83;;;7.90;97.10;;;;;;4974681;28;20197;-79
2021/04/15 12:37:16;;;;;;;3.03;2.50;;;7.80;96.10;;;;;;4979956;28;20260;-78
2021/04/15 12:40:05;;;;;;;5.03;3.07;;;7.90;96.60;;;;;;4970446;28;20645;-79
2021/04/15 12:42:37;;;;;;;3.83;3.00;;;7.90;97.00;;;;;;4956760;28;20561;-78
2021/04/15 12:45:18;;;;;;;3.90;2.90;;;8.10;95.70;;;;;;4977149;28;20182;-79
2021/04/15 12:47:44;;;;;;;3.87;2.70;;;8.10;95.80;;;;;;4985487;28;20689;-79
2021/04/15 12:50:11;;;;;;;9.50;3.03;;;8.20;96.10;;;;;;4994693;28;20185;-79
2021/04/15 12:52:37;;;;;;;6.37;5.83;;;8.50;97.80;;;;;;4980688;28;20170;-79
2021/04/15 12:55:10;;;;;;;3.43;3.13;;;8.70;96.30;;;;;;4979385;28;20175;-79
2021/04/15 12:57:36;;;;;;;3.23;2.93;;;8.80;95.90;;;;;;4977544;28;20215;-79
2021/04/15 13:00:07;;;;;;;3.50;3.20;;;8.80;95.80;;;;;;4979623;28;20169;-80
2021/04/15 13:02:33;;;;;;;3.17;2.87;;;8.50;95.50;;;;;;4982471;28;20180;-81
2021/04/15 13:05:05;;;;;;;3.80;3.10;;;8.40;94.90;;;;;;4974577;28;20928;-79
2021/04/15 13:07:36;;;;;;;3.40;3.10;;;8.30;96.90;;;;;;4976356;28;20206;-79
2021/04/15 13:10:18;;;;;;;3.30;3.00;;;8.00;97.90;;;;;;4977581;28;20178;-78
2021/04/15 13:12:51;;;;;;;3.37;2.80;;;8.00;98.10;;;;;;4984997;28;20194;-78
2021/04/15 13:15:26;;;;;;;3.63;2.73;;;8.00;98.10;;;;;;4987597;28;20177;-81
2021/04/15 13:17:54;;;;;;;3.30;3.00;;;7.90;98.40;;;;;;4988803;28;20211;-80
2021/04/15 13:20:20;;;;;;;3.70;3.10;;;8.00;98.80;;;;;;4981973;28;20177;-80
2021/04/15 13:22:54;;;;;;;4.43;2.50;;;8.00;98.80;;;;;;4981645;28;20227;-79
2021/04/15 13:25:25;;;;;;;3.37;3.07;;;7.90;96.60;;;;;;4980093;28;20243;-79
2021/04/15 13:27:53;;;;;;;2.70;2.50;;;7.80;96.30;;;;;;4971556;28;20232;-80
2021/04/15 13:30:41;;;;;;;3.13;2.83;;;7.70;95.10;;;;;;5006948;28;20193;-80
2021/04/15 13:33:15;;;;;;;2.80;2.37;;;7.70;94.10;;;;;;4982890;28;20240;-79
2021/04/15 13:35:49;;;;;;;2.87;2.60;;;7.90;93.90;;;;;;4975717;28;20189;-80
2021/04/15 13:41:25;;;;;;;5.40;2.63;;;8.20;93.60;;;;;;4972358;28;20201;-79
2021/04/15 13:43:58;;;;;;;2.73;2.53;;;8.50;93.30;;;;;;4985858;28;20208;-80
2021/04/15 13:49:23;;;;;;;3.70;2.63;;;8.60;94.10;;;;;;4976324;28;20178;-78
2021/04/15 13:52:11;;;;;;;3.37;3.07;;;8.70;94.40;;;;;;4971982;28;20542;-78
2021/04/15 13:54:46;;;;;;;3.20;2.90;;;8.70;94.50;;;;;;4985693;28;20595;-79
2021/04/15 13:57:19;;;;;;;3.47;3.20;;;8.80;94.20;;;;;;4960835;28;20225;-78
2021/04/15 13:59:56;;;;;;;3.00;2.70;;;8.60;94.20;;;;;;4970735;28;20983;-79